createdAt,value
2023-02-03T00:01:04.327Z,16.48
2023-02-03T00:02:15.075Z,17.28
2023-02-03T00:05:49.411Z,16.42
2023-02-03T00:06:58.565Z,18.35
2023-02-03T00:08:08.966Z,18.05
2023-02-03T00:09:18.644Z,17.80
2023-02-03T00:10:28.202Z,18.43
2023-02-03T00:11:38.321Z,19.88
2023-02-03T00:12:50.694Z,22.95
2023-02-03T00:13:59.737Z,24.73
2023-02-03T00:15:10.272Z,23.90
2023-02-03T00:16:21.291Z,23.60
2023-02-03T00:18:40.244Z,19.85
2023-02-03T00:19:49.963Z,20.75
2023-02-03T00:21:00.013Z,18.35
2023-02-03T00:22:09.743Z,18.53
2023-02-03T00:23:18.291Z,18.07
2023-02-03T00:24:27.639Z,18.78
2023-02-03T00:25:39.263Z,18.62
2023-02-03T00:26:47.805Z,18.57
2023-02-03T00:27:56.381Z,16.90
2023-02-03T00:29:05.672Z,17.48
2023-02-03T00:30:15.222Z,17.23
2023-02-03T00:31:25.075Z,18.88
2023-02-03T00:32:33.958Z,18.44
2023-02-03T00:33:42.701Z,17.10
2023-02-03T00:34:51.338Z,17.78
2023-02-03T00:36:08.324Z,18.50
2023-02-03T00:37:18.344Z,18.60
2023-02-03T00:38:28.061Z,17.75
2023-02-03T00:39:37.394Z,16.72
2023-02-03T00:42:10.221Z,16.67
2023-02-03T00:43:19.800Z,17.18
2023-02-03T00:44:28.318Z,17.60
2023-02-03T00:45:37.333Z,19.70
2023-02-03T00:46:46.118Z,18.65
2023-02-03T00:47:56.923Z,18.78
2023-02-03T00:50:15.686Z,18.87
2023-02-03T00:51:24.445Z,18.92
2023-02-03T00:52:37.157Z,20.80
2023-02-03T00:53:46.245Z,20.38
2023-02-03T00:54:54.813Z,21.45
2023-02-03T00:56:04.643Z,19.78
2023-02-03T00:57:13.376Z,19.08
2023-02-03T00:58:23.215Z,18.93
2023-02-03T00:59:32.605Z,18.80
2023-02-03T01:00:42.332Z,18.75
2023-02-03T01:01:51.759Z,16.65
2023-02-03T01:03:00.960Z,16.66
2023-02-03T01:04:09.964Z,16.68
2023-02-03T01:05:19.584Z,16.05
2023-02-03T01:06:30.657Z,18.08
2023-02-03T01:07:40.096Z,18.30
2023-02-03T01:08:50.432Z,16.93
2023-02-03T01:11:14.056Z,17.55
2023-02-03T01:12:23.265Z,15.90
2023-02-03T01:13:33.189Z,17.12
2023-02-03T01:14:42.014Z,17.05
2023-02-03T01:15:52.341Z,15.95
2023-02-03T01:17:02.274Z,16.30
2023-02-03T01:19:27.582Z,16.18
2023-02-03T01:20:37.334Z,15.80
2023-02-03T01:21:45.849Z,15.97
2023-02-03T01:22:55.372Z,17.40
2023-02-03T01:24:07.751Z,18.15
2023-02-03T01:26:27.685Z,18.25
2023-02-03T01:27:37.028Z,18.03
2023-02-03T01:28:58.419Z,16.72
2023-02-03T01:30:10.474Z,17.82
2023-02-03T01:31:23.697Z,16.50
2023-02-03T01:32:33.317Z,17.13
2023-02-03T01:33:44.770Z,16.92
2023-02-03T01:34:53.415Z,18.10
2023-02-03T01:36:04.063Z,17.52
2023-02-03T01:37:14.014Z,18.25
2023-02-03T01:38:25.337Z,18.15
2023-02-03T01:40:56.773Z,18.26
2023-02-03T01:42:08.457Z,18.34
2023-02-03T01:44:51.493Z,17.55
2023-02-03T01:48:45.091Z,15.33
2023-02-03T01:50:06.291Z,16.12
2023-02-03T01:51:15.589Z,15.10
2023-02-03T01:52:25.492Z,14.65
2023-02-03T01:53:38.036Z,15.70
2023-02-03T01:54:51.690Z,13.95
2023-02-03T01:56:06.244Z,15.35
2023-02-03T01:58:43.603Z,13.32
2023-02-03T01:59:55.231Z,14.77
2023-02-03T02:02:21.220Z,14.57
2023-02-03T02:05:06.136Z,14.33
2023-02-03T02:06:16.889Z,14.13
2023-02-03T02:07:26.852Z,14.40
2023-02-03T02:08:39.215Z,13.90
2023-02-03T02:09:49.264Z,14.95
2023-02-03T02:11:02.826Z,14.15
2023-02-03T02:12:12.809Z,15.65
2023-02-03T02:13:22.862Z,16.43
2023-02-03T02:16:11.650Z,18.22
2023-02-03T02:17:44.417Z,16.44
2023-02-03T02:18:59.831Z,15.68
2023-02-03T02:21:41.144Z,15.55
2023-02-03T02:23:11.719Z,14.43
2023-02-03T02:24:36.691Z,15.00
2023-02-03T09:37:33.762Z,4.25
2023-02-03T09:39:58.569Z,3.27
2023-02-03T09:41:17.184Z,2.70
2023-02-03T09:42:45.955Z,3.48
2023-02-03T09:44:03.194Z,2.80
2023-02-03T09:46:43.514Z,3.02
2023-02-03T09:49:17.656Z,6.10
2023-02-03T09:50:31.184Z,4.10
2023-02-03T09:51:47.334Z,3.85
2023-02-03T09:52:59.259Z,4.05
2023-02-03T09:54:21.448Z,4.15
2023-02-03T09:56:56.933Z,4.67
2023-02-03T13:31:06.078Z,9.23
2023-02-03T13:34:07.795Z,6.83
2023-02-03T13:35:34.245Z,8.30
2023-02-03T13:36:52.760Z,9.20
2023-02-03T13:38:17.618Z,7.40
2023-02-03T13:39:53.535Z,8.30
2023-02-03T13:41:20.358Z,6.12
2023-02-03T13:42:32.154Z,5.97
2023-02-03T13:43:47.299Z,7.53
2023-02-03T13:45:15.024Z,5.27
2023-02-03T13:46:30.834Z,6.48
2023-02-03T13:49:01.059Z,8.47
2023-02-03T13:50:19.592Z,8.66
2023-02-03T13:51:35.316Z,10.25
2023-02-03T13:54:36.715Z,7.73
2023-02-03T13:55:58.303Z,7.00
2023-02-03T13:58:38.926Z,7.25
2023-02-03T13:59:50.949Z,8.27
2023-02-03T14:01:07.901Z,10.32
2023-02-03T14:02:24.953Z,9.33
2023-02-03T14:03:38.183Z,8.35
2023-02-03T14:04:54.500Z,9.78
2023-02-03T14:06:03.434Z,8.57
2023-02-03T14:07:33.914Z,8.10
2023-02-03T14:08:50.991Z,8.90
2023-02-03T14:11:39.893Z,8.85
2023-02-03T14:12:56.068Z,7.82
2023-02-03T14:14:08.630Z,7.05
2023-02-03T14:16:54.840Z,6.25
2023-02-03T14:19:32.883Z,7.60
2023-02-03T14:22:05.736Z,8.05
2023-02-03T14:25:58.661Z,6.95
2023-02-03T14:27:24.140Z,5.68
2023-02-03T14:28:41.797Z,6.70
2023-02-03T14:31:28.446Z,6.17
2023-02-03T14:35:34.623Z,6.00
2023-02-03T14:41:00.017Z,5.08
2023-02-03T14:42:18.488Z,6.08
2023-02-03T14:45:05.556Z,6.98
2023-02-03T14:46:34.788Z,17.12
2023-02-03T14:47:51.170Z,6.33
2023-02-03T14:50:49.864Z,5.02
2023-02-03T14:52:15.074Z,5.02
2023-02-03T14:55:10.575Z,4.15
2023-02-03T14:57:00.658Z,4.23
2023-02-03T14:59:46.374Z,4.42
2023-02-03T15:00:56.253Z,4.73
2023-02-03T15:02:10.424Z,4.77
2023-02-03T15:03:22.525Z,4.15
2023-02-03T15:04:31.942Z,4.33
2023-02-03T15:05:47.633Z,4.45
2023-02-03T15:06:56.751Z,4.30
2023-02-03T15:08:26.504Z,3.95
2023-02-03T15:12:49.782Z,3.82
2023-02-03T15:15:49.240Z,3.22
2023-02-03T15:17:05.609Z,3.42
2023-02-03T15:19:41.376Z,3.78
2023-02-03T15:20:55.294Z,4.30
2023-02-03T15:23:45.545Z,3.47
2023-02-03T15:25:04.330Z,5.08
2023-02-03T15:26:24.700Z,3.82
2023-02-03T15:27:34.125Z,3.76
2023-02-03T15:28:43.172Z,16.50
2023-02-03T15:29:53.395Z,4.45
2023-02-03T15:31:11.823Z,3.05
2023-02-03T15:33:50.799Z,3.98
2023-02-03T15:35:02.697Z,2.98
2023-02-03T15:37:50.276Z,3.50
2023-02-03T15:40:22.772Z,4.48
2023-02-03T15:41:32.905Z,4.28
2023-02-03T15:44:13.453Z,3.90
2023-02-03T15:45:32.330Z,4.27
2023-02-03T15:48:08.121Z,5.45
2023-02-03T15:50:42.141Z,4.70
2023-02-03T15:54:45.248Z,4.20
2023-02-03T15:56:04.479Z,4.58
2023-02-03T15:57:34.925Z,4.67
2023-02-03T16:00:00.221Z,4.93
2023-02-03T16:01:16.976Z,6.35
2023-02-03T16:02:29.350Z,6.38
2023-02-03T16:03:42.691Z,7.75
2023-02-03T16:06:31.099Z,7.78
2023-02-03T16:07:40.432Z,9.15
2023-02-03T16:08:51.125Z,6.65
2023-02-03T16:10:00.800Z,6.15
2023-02-03T16:11:25.203Z,6.85
2023-02-03T16:12:35.600Z,5.50
2023-02-03T16:13:45.270Z,5.30
2023-02-03T16:14:55.717Z,4.35
2023-02-03T16:16:20.869Z,4.35
2023-02-03T16:17:41.747Z,4.48
2023-02-03T16:20:16.764Z,4.10
2023-02-03T16:23:02.743Z,3.70
2023-02-03T16:26:18.901Z,4.47
2023-02-03T16:27:31.506Z,4.40
2023-02-03T16:28:59.429Z,5.03
2023-02-03T16:30:34.771Z,6.93
2023-02-03T16:33:39.053Z,4.52
2023-02-03T16:35:07.016Z,6.12
2023-02-03T16:36:34.800Z,4.48
2023-02-03T16:38:02.728Z,4.60
2023-02-03T16:39:31.924Z,6.65
2023-02-03T16:40:59.615Z,4.25
2023-02-03T16:42:36.105Z,3.52
2023-02-03T16:44:05.155Z,3.80
2023-02-03T16:45:35.927Z,5.48
2023-02-03T16:48:39.084Z,4.25
2023-02-03T16:50:06.458Z,3.60
2023-02-03T16:51:17.538Z,4.10
2023-02-03T16:53:45.079Z,5.02
2023-02-03T16:54:53.974Z,5.53
2023-02-03T16:57:20.152Z,4.75
2023-02-03T16:58:29.085Z,5.82
2023-02-03T17:00:53.817Z,9.10
2023-02-03T17:02:02.676Z,9.22
2023-02-03T17:03:19.952Z,8.90
2023-02-03T17:04:29.092Z,7.62
2023-02-03T17:05:40.121Z,7.88
2023-02-03T17:08:01.631Z,7.78
2023-02-03T17:09:10.440Z,7.05
2023-02-03T17:10:19.676Z,7.20
2023-02-03T17:11:28.308Z,7.52
2023-02-03T17:12:37.436Z,6.73
2023-02-03T17:13:47.145Z,7.42
2023-02-03T17:14:58.594Z,8.22
2023-02-03T17:17:26.112Z,7.75
2023-02-03T17:19:49.824Z,5.15
2023-02-03T17:22:18.462Z,81.73
2023-02-03T17:23:27.763Z,234.28
2023-02-03T17:24:36.293Z,194.67
2023-02-03T17:25:46.964Z,106.03
2023-02-03T17:29:43.263Z,8.83
2023-02-03T17:32:15.105Z,5.95
2023-02-03T17:34:35.792Z,5.97
2023-02-03T17:35:45.120Z,5.97
2023-02-03T17:36:55.849Z,5.47
2023-02-03T19:38:17.669Z,8.00
2023-02-03T19:39:26.183Z,7.42
2023-02-03T19:40:36.502Z,5.70
2023-02-03T19:41:46.347Z,7.85
2023-02-03T19:42:55.067Z,5.77
2023-02-03T19:45:20.137Z,7.00
2023-02-03T19:46:31.046Z,6.70
2023-02-03T19:48:49.806Z,6.50
2023-02-03T19:50:00.074Z,7.12
2023-02-03T19:52:25.276Z,7.45
2023-02-03T19:53:34.948Z,7.17
2023-02-03T19:55:59.526Z,7.55
2023-02-03T19:57:09.278Z,8.38
2023-02-03T19:58:18.559Z,9.45
2023-02-03T19:59:27.396Z,6.98
2023-02-03T20:01:51.736Z,6.40
2023-02-03T20:03:00.672Z,6.40
2023-02-03T20:04:09.205Z,6.80
2023-02-03T20:05:18.056Z,7.62
2023-02-03T20:06:29.556Z,10.24
2023-02-03T20:08:59.818Z,7.62
2023-02-03T20:10:08.970Z,8.00
2023-02-03T20:11:19.932Z,7.95
2023-02-03T20:12:31.503Z,7.80
2023-02-03T20:13:41.613Z,7.45
2023-02-03T20:14:50.458Z,8.00
2023-02-03T20:15:59.816Z,8.32
2023-02-03T20:17:08.443Z,13.07
2023-02-03T20:18:17.055Z,8.95
2023-02-03T20:19:26.936Z,8.93
2023-02-03T20:20:36.345Z,8.38
2023-02-03T20:21:46.180Z,8.02
2023-02-03T20:22:54.986Z,7.75
2023-02-03T20:24:04.503Z,9.95
2023-02-03T20:26:34.948Z,8.50
2023-02-03T20:27:45.928Z,6.45
2023-02-03T20:30:29.757Z,9.10
2023-02-03T20:31:39.250Z,6.82
2023-02-03T20:32:48.697Z,6.45
2023-02-03T20:33:58.565Z,7.28
2023-02-03T20:36:23.138Z,8.20
2023-02-03T20:37:34.807Z,9.30
2023-02-03T20:38:45.689Z,9.47
2023-02-03T20:41:08.091Z,8.25
2023-02-03T20:43:33.904Z,10.02
2023-02-03T20:44:43.210Z,8.43
2023-02-03T20:45:53.499Z,8.42
2023-02-03T20:47:02.715Z,7.90
2023-02-03T20:49:28.937Z,8.25
2023-02-03T20:50:42.570Z,6.95
2023-02-03T20:51:49.691Z,6.70
2023-02-03T20:52:58.483Z,6.15
2023-02-03T20:55:36.848Z,9.62
2023-02-03T20:56:45.458Z,6.63
2023-02-03T20:57:55.875Z,6.56
2023-02-03T21:00:25.910Z,8.27
2023-02-03T21:03:02.747Z,6.77
2023-02-03T21:04:36.202Z,8.45
2023-02-03T21:07:17.397Z,9.08
2023-02-03T21:08:27.104Z,10.83
2023-02-03T21:09:35.805Z,8.65
2023-02-03T21:12:02.492Z,7.67
2023-02-03T21:13:31.450Z,8.82
2023-02-03T21:14:49.614Z,9.96
2023-02-03T21:16:03.275Z,11.28
2023-02-03T21:19:01.198Z,12.47
2023-02-03T21:21:37.506Z,10.38
2023-02-03T21:22:47.625Z,10.73
2023-02-03T21:25:14.866Z,13.58
2023-02-03T21:26:27.059Z,11.45
2023-02-03T21:28:55.303Z,12.45
2023-02-03T21:31:45.373Z,9.56
2023-02-03T21:32:54.543Z,10.22
2023-02-03T21:35:39.285Z,9.58
2023-02-03T21:36:48.485Z,9.62
2023-02-03T21:38:02.273Z,9.15
2023-02-03T21:39:29.965Z,9.12
2023-02-03T21:40:39.793Z,10.27
2023-02-03T21:43:07.999Z,9.10
2023-02-03T21:44:35.925Z,8.73
2023-02-03T21:45:45.638Z,7.43
2023-02-03T21:46:55.055Z,9.18
2023-02-03T21:48:28.761Z,8.57
2023-02-03T21:50:55.402Z,10.95
2023-02-03T21:53:31.418Z,9.73
2023-02-03T21:54:44.776Z,10.27
2023-02-03T21:57:18.139Z,9.62
2023-02-03T21:59:49.297Z,7.87
2023-02-03T22:01:01.815Z,6.10
2023-02-03T22:02:30.983Z,5.07
2023-02-03T22:03:43.867Z,4.02
2023-02-03T22:06:15.290Z,4.27
2023-02-03T22:07:23.804Z,4.17
2023-02-03T22:08:35.503Z,3.98
2023-02-03T22:09:47.151Z,5.43
2023-02-03T22:10:57.837Z,4.02
2023-02-03T22:13:21.862Z,5.10
2023-02-03T22:14:30.948Z,6.53
2023-02-03T22:15:41.443Z,4.90
2023-02-03T22:18:05.435Z,6.07
2023-02-03T22:19:17.078Z,5.27
2023-02-03T22:20:28.369Z,6.77
2023-02-03T22:21:39.424Z,5.67
2023-02-03T22:23:58.062Z,5.70
2023-02-03T22:26:23.909Z,9.92
2023-02-03T22:27:33.115Z,9.48
2023-02-03T22:29:57.497Z,6.05
2023-02-03T22:31:08.570Z,6.83
2023-02-03T22:32:17.473Z,5.85
2023-02-03T22:33:26.921Z,5.55
2023-02-03T22:34:36.702Z,5.82
2023-02-03T22:35:46.101Z,6.97
2023-02-03T22:36:56.056Z,7.82
2023-02-03T22:38:04.808Z,7.85
2023-02-03T22:39:13.561Z,6.20
2023-02-03T22:40:23.477Z,7.65
2023-02-03T22:42:47.702Z,6.82
2023-02-03T22:43:57.223Z,5.58
2023-02-03T22:45:08.218Z,6.08
2023-02-03T22:47:33.310Z,6.43
2023-02-03T22:49:57.632Z,5.60
2023-02-03T22:51:06.800Z,8.77
2023-02-03T22:52:16.066Z,8.77
2023-02-03T22:53:27.568Z,9.43
2023-02-03T22:54:36.677Z,8.47
2023-02-03T22:55:46.190Z,9.87
2023-02-03T22:56:56.298Z,7.12
2023-02-03T22:58:07.339Z,6.78
2023-02-03T22:59:16.145Z,7.28
2023-02-03T23:01:41.184Z,6.70
2023-02-03T23:02:50.499Z,6.65
2023-02-03T23:03:59.128Z,7.52
2023-02-03T23:05:09.568Z,8.78
2023-02-03T23:06:20.368Z,9.72
2023-02-03T23:09:06.893Z,9.07
2023-02-03T23:10:24.106Z,6.18
2023-02-03T23:11:33.737Z,7.23
2023-02-03T23:12:44.237Z,5.70
2023-02-03T23:15:02.968Z,5.85
2023-02-03T23:16:12.937Z,6.13
2023-02-03T23:17:21.689Z,7.43
2023-02-03T23:18:32.139Z,6.62
2023-02-03T23:19:42.858Z,7.37
2023-02-03T23:20:53.489Z,8.45
2023-02-03T23:22:02.499Z,6.10
2023-02-03T23:23:11.591Z,4.87
2023-02-03T23:24:20.513Z,4.23
2023-02-03T23:26:46.088Z,5.57
2023-02-03T23:27:56.149Z,6.85
2023-02-03T23:30:22.709Z,12.00
2023-02-03T23:31:32.171Z,11.75
2023-02-03T23:32:42.282Z,12.28
2023-02-03T23:34:09.414Z,10.83
2023-02-03T23:35:37.892Z,8.95
2023-02-03T23:36:48.413Z,6.00
2023-02-03T23:37:58.048Z,5.65
2023-02-03T23:39:08.125Z,4.62
2023-02-03T23:40:18.755Z,4.55
2023-02-03T23:41:28.104Z,5.90
2023-02-03T23:42:37.732Z,5.50
2023-02-03T23:43:47.124Z,5.20
2023-02-03T23:46:14.334Z,5.60
2023-02-03T23:47:24.526Z,5.50
2023-02-03T23:48:33.025Z,5.40
2023-02-03T23:49:41.678Z,6.85
2023-02-03T23:50:51.126Z,6.27
2023-02-03T23:52:00.847Z,7.25
2023-02-03T23:53:09.699Z,6.56
2023-02-03T23:54:19.082Z,6.82
2023-02-03T23:55:28.699Z,6.65
2023-02-03T23:56:41.571Z,5.38
2023-02-03T23:57:52.762Z,5.48
2023-02-03T23:59:03.339Z,5.63
